Time;durP1;ratioP1;P1;durP2;ratioP2;P2;SDS_P1;SDS_P2;PMS_P1;PMS_P2;Temp;Humidity;BMP_temperature;BMP_pressure;BME280_temperature;BME280_humidity;BME280_pressure;Samples;Min_cycle;Max_cycle;Signal;HPM_P1;HPM_P2
2023/01/19 00:01:13;;;;;;;13.00;5.77;;;;;;;-0.39;79.71;99344.84;5032736;28;20233;-77
2023/01/19 00:03:41;;;;;;;7.93;5.00;;;;;;;-0.35;79.48;99336.78;5035077;28;20226;-78
2023/01/19 00:06:16;;;;;;;9.33;5.57;;;;;;;-0.37;79.87;99333.41;5033752;28;20210;-77
2023/01/19 00:08:44;;;;;;;8.27;5.27;;;;;;;-0.36;79.60;99332.47;5032728;28;20209;-78
2023/01/19 00:11:12;;;;;;;8.77;5.27;;;;;;;-0.34;79.56;99335.03;5035444;28;20221;-78
2023/01/19 00:13:48;;;;;;;9.10;5.40;;;;;;;-0.30;79.62;99335.75;5031039;28;20218;-77
2023/01/19 00:16:17;;;;;;;9.63;5.43;;;;;;;-0.33;79.65;99326.28;5027864;28;20206;-78
2023/01/19 00:18:50;;;;;;;9.40;4.93;;;;;;;-0.31;79.77;99332.28;5032050;28;20234;-78
2023/01/19 00:21:18;;;;;;;9.03;4.87;;;;;;;-0.29;79.77;99335.69;5032438;28;20715;-78
2023/01/19 00:23:47;;;;;;;7.73;4.97;;;;;;;-0.31;79.83;99328.81;5026942;28;20256;-77
2023/01/19 00:26:20;;;;;;;8.40;5.50;;;;;;;-0.29;79.71;99316.53;5030179;28;20674;-78
2023/01/19 00:28:49;;;;;;;7.13;4.60;;;;;;;-0.29;79.61;99324.38;5029083;28;20550;-78
2023/01/19 00:31:19;;;;;;;8.13;5.33;;;;;;;-0.30;79.64;99327.91;5033044;28;20260;-77
2023/01/19 00:33:50;;;;;;;6.93;4.67;;;;;;;-0.29;80.01;99319.16;5027256;28;20646;-77
2023/01/19 00:36:20;;;;;;;9.17;5.00;;;;;;;-0.29;79.80;99322.63;5027438;28;20202;-78
2023/01/19 00:38:51;;;;;;;8.17;4.77;;;;;;;-0.25;79.84;99326.81;5032061;28;20654;-77
2023/01/19 00:42:38;;;;;;;7.17;4.97;;;;;;;-0.23;80.14;99330.22;5031197;28;20206;-78
2023/01/19 00:44:09;;;;;;;8.17;5.20;;;;;;;-0.25;79.90;99333.81;5027916;28;20556;-78
2023/01/19 00:46:37;;;;;;;9.27;5.00;;;;;;;-0.24;80.04;99328.53;5028610;28;20244;-78
2023/01/19 00:49:08;;;;;;;7.40;5.23;;;;;;;-0.23;80.04;99330.22;5030241;28;20218;-77
2023/01/19 00:51:39;;;;;;;9.90;4.10;;;;;;;-0.18;80.37;99324.81;5030598;28;20222;-77
2023/01/19 00:54:12;;;;;;;6.80;4.90;;;;;;;-0.15;80.23;99320.28;5030410;28;20226;-78
2023/01/19 00:56:39;;;;;;;8.43;4.70;;;;;;;-0.13;80.05;99326.31;5028693;28;20258;-77
2023/01/19 00:59:10;;;;;;;7.93;4.50;;;;;;;-0.11;80.04;99321.88;5025982;28;20701;-78
2023/01/19 01:01:40;;;;;;;6.40;4.63;;;;;;;-0.11;79.82;99321.88;5031026;28;20267;-77
2023/01/19 01:04:13;;;;;;;5.47;3.93;;;;;;;-0.09;79.52;99317.44;5032085;28;20241;-77
2023/01/19 01:06:42;;;;;;;6.33;4.30;;;;;;;-0.04;79.54;99314.63;5033976;28;20225;-76
2023/01/19 01:09:11;;;;;;;6.37;4.00;;;;;;;-0.02;79.41;99310.19;5029117;28;20206;-77
2023/01/19 01:11:39;;;;;;;7.87;3.97;;;;;;;-0.04;79.46;99315.50;5031457;28;20211;-78
2023/01/19 01:14:10;;;;;;;6.27;4.20;;;;;;;-0.05;79.18;99305.94;5032193;28;20230;-77
2023/01/19 01:16:39;;;;;;;8.23;4.20;;;;;;;0.03;79.15;99313.44;5028556;28;20300;-77
2023/01/19 01:19:08;;;;;;;4.77;4.30;;;;;;;-0.01;79.11;99323.22;5027338;28;20202;-78
2023/01/19 01:21:36;;;;;;;6.03;4.43;;;;;;;-0.01;79.32;99307.50;5030412;28;20229;-77
2023/01/19 01:24:03;;;;;;;8.60;4.03;;;;;;;0.02;78.95;99326.59;5028205;28;20235;-78
2023/01/19 01:26:32;;;;;;;5.70;3.60;;;;;;;0.00;79.10;99324.88;5028787;28;20269;-77
2023/01/19 01:29:02;;;;;;;6.73;4.27;;;;;;;0.02;79.06;99322.22;5033297;28;20210;-78
2023/01/19 01:31:49;;;;;;;5.43;4.33;;;;;;;0.05;79.04;99321.22;5031117;28;20203;-78
2023/01/19 01:34:19;;;;;;;5.83;3.97;;;;;;;-0.01;78.74;99317.97;5032039;28;20210;-78
2023/01/19 01:36:50;;;;;;;7.57;4.53;;;;;;;0.01;78.95;99310.03;5031821;28;20206;-78
2023/01/19 01:39:19;;;;;;;5.97;3.90;;;;;;;0.07;78.98;99324.66;5030841;28;20248;-78
2023/01/19 01:41:48;;;;;;;6.20;3.73;;;;;;;0.06;78.68;99313.31;5023666;28;20198;-78
2023/01/19 01:44:49;;;;;;;6.73;4.57;;;;;;;0.06;78.68;99326.41;5030052;28;20685;-79
2023/01/19 01:47:22;;;;;;;5.80;4.07;;;;;;;0.09;78.57;99325.44;5034273;28;20209;-79
2023/01/19 01:49:53;;;;;;;5.17;3.50;;;;;;;0.09;78.81;99314.97;5035497;28;20301;-79
2023/01/19 01:52:22;;;;;;;8.67;4.20;;;;;;;0.10;78.89;99319.28;5031716;28;20226;-79
2023/01/19 01:54:49;;;;;;;6.60;4.77;;;;;;;0.08;78.83;99316.72;5033679;28;20207;-79
2023/01/19 02:00:11;;;;;;;5.20;4.10;;;;;;;0.17;78.69;99311.13;5009386;28;20211;-78
2023/01/19 02:02:54;;;;;;;5.97;3.53;;;;;;;0.16;78.76;99313.81;5022340;28;20316;-80
2023/01/19 02:05:27;;;;;;;7.47;4.47;;;;;;;0.18;78.72;99314.59;5034201;28;20240;-80
2023/01/19 02:13:38;;;;;;;9.40;4.70;;;;;;;0.14;79.01;99311.25;5035775;28;20256;-80
2023/01/19 02:16:08;;;;;;;8.53;4.10;;;;;;;0.18;79.08;99317.22;5031298;28;20218;-80
2023/01/19 02:18:36;;;;;;;5.33;3.67;;;;;;;0.20;79.12;99305.72;5024938;28;20210;-79
2023/01/19 02:21:12;;;;;;;5.73;3.83;;;;;;;0.25;79.05;99316.88;5032445;28;20257;-79
2023/01/19 02:23:49;;;;;;;5.57;3.73;;;;;;;0.28;79.05;99314.13;5035525;28;20238;-79
2023/01/19 02:26:20;;;;;;;5.30;3.10;;;;;;;0.30;79.06;99307.06;5033535;28;20237;-79
2023/01/19 02:28:56;;;;;;;6.47;5.00;;;;;;;0.32;78.54;99322.69;5031977;28;20236;-79
2023/01/19 02:31:25;;;;;;;6.57;4.57;;;;;;;0.31;79.03;99307.91;5034816;28;20225;-79
2023/01/19 02:33:53;;;;;;;5.93;4.23;;;;;;;0.29;78.71;99307.97;5035174;28;20257;-79
2023/01/19 02:36:29;;;;;;;7.33;4.33;;;;;;;0.28;78.81;99308.03;5036410;28;20658;-79
2023/01/19 02:39:00;;;;;;;7.20;4.60;;;;;;;0.30;78.42;99316.69;5036455;28;20209;-79
2023/01/19 02:41:33;;;;;;;5.90;4.17;;;;;;;0.28;78.82;99318.50;5028143;28;20670;-79
2023/01/19 02:44:06;;;;;;;6.87;3.50;;;;;;;0.29;78.22;99321.06;5032547;28;20231;-79
2023/01/19 02:46:34;;;;;;;7.07;4.50;;;;;;;0.27;78.53;99322.91;5019292;28;20206;-79
2023/01/19 02:49:08;;;;;;;6.30;4.90;;;;;;;0.26;78.50;99325.56;5028714;28;20662;-79
2023/01/19 02:51:36;;;;;;;8.17;4.40;;;;;;;0.25;78.29;99334.34;5027850;28;20576;-79
2023/01/19 02:54:24;;;;;;;6.60;3.80;;;;;;;0.27;78.69;99340.38;5036544;28;20325;-79
2023/01/19 02:57:12;;;;;;;5.20;4.20;;;;;;;0.25;78.28;99340.44;5025798;28;20202;-80
2023/01/19 02:59:52;;;;;;;7.50;4.70;;;;;;;0.23;78.76;99329.16;5035623;28;20297;-78
2023/01/19 03:02:33;;;;;;;6.20;4.20;;;;;;;0.22;78.59;99330.09;5035928;28;20238;-79
2023/01/19 03:05:23;;;;;;;7.10;4.40;;;;;;;0.19;78.32;99332.81;5027579;28;20281;-80
2023/01/19 03:08:00;;;;;;;7.10;4.23;;;;;;;0.20;78.60;99331.06;5025916;28;20273;-79
2023/01/19 03:10:39;;;;;;;6.67;4.30;;;;;;;0.20;78.55;99346.78;5033482;28;20216;-78
2023/01/19 03:13:12;;;;;;;6.53;4.73;;;;;;;0.18;78.58;99338.16;5037234;28;20225;-77
2023/01/19 03:15:48;;;;;;;6.13;4.00;;;;;;;0.19;78.94;99330.22;5030541;28;20240;-78
2023/01/19 03:18:19;;;;;;;5.60;4.20;;;;;;;0.17;78.02;99331.22;5028064;28;20213;-78
2023/01/19 03:20:48;;;;;;;6.27;4.10;;;;;;;0.12;78.57;99338.41;5022778;28;20198;-78
2023/01/19 03:23:18;;;;;;;6.83;4.40;;;;;;;0.10;78.00;99345.47;5030733;28;20234;-77
2023/01/19 03:25:49;;;;;;;7.37;4.60;;;;;;;0.07;78.70;99348.19;5028270;28;20204;-78
2023/01/19 03:28:23;;;;;;;5.40;4.50;;;;;;;0.09;78.77;99338.53;5021434;28;20217;-78
2023/01/19 03:30:56;;;;;;;5.93;3.70;;;;;;;0.14;79.20;99331.34;5029779;28;20671;-78
2023/01/19 03:33:28;;;;;;;6.97;4.33;;;;;;;0.13;79.24;99340.09;5029097;28;20238;-78
2023/01/19 03:36:02;;;;;;;5.63;3.90;;;;;;;0.16;79.25;99329.50;5028885;28;20222;-77
2023/01/19 03:38:35;;;;;;;6.63;4.13;;;;;;;0.15;79.40;99327.81;5030651;28;20605;-78
2023/01/19 03:41:08;;;;;;;6.90;4.43;;;;;;;0.15;79.53;99335.66;5032703;28;20211;-77
2023/01/19 03:43:43;;;;;;;7.63;4.87;;;;;;;0.13;79.97;99340.09;5026442;28;20327;-77
2023/01/19 03:46:16;;;;;;;6.60;4.30;;;;;;;0.13;79.92;99335.72;5031870;28;20205;-77
2023/01/19 03:48:44;;;;;;;6.10;4.27;;;;;;;0.17;80.15;99339.06;5027986;28;20218;-77
2023/01/19 03:51:13;;;;;;;5.77;4.53;;;;;;;0.16;80.11;99330.38;5032527;28;20214;-77
2023/01/19 03:53:40;;;;;;;6.53;4.50;;;;;;;0.21;80.36;99332.75;5029840;28;20229;-77
2023/01/19 03:56:17;;;;;;;5.53;4.00;;;;;;;0.21;80.77;99336.22;5030973;28;20641;-78
2023/01/19 03:58:44;;;;;;;6.13;4.47;;;;;;;0.25;80.76;99336.97;5031142;28;20198;-77
2023/01/19 04:01:12;;;;;;;6.47;4.30;;;;;;;0.28;80.49;99332.44;5028741;28;20638;-77
2023/01/19 04:03:39;;;;;;;6.97;4.60;;;;;;;0.30;80.48;99329.78;5029078;28;20309;-77
2023/01/19 04:06:08;;;;;;;8.63;4.43;;;;;;;0.31;80.69;99332.31;5034624;28;20293;-77
2023/01/19 04:08:35;;;;;;;5.37;4.47;;;;;;;0.38;81.09;99332.91;5029330;28;20206;-77
2023/01/19 04:11:07;;;;;;;8.00;4.47;;;;;;;0.43;81.10;99330.09;5025325;28;20231;-77
2023/01/19 04:13:36;;;;;;;7.20;4.60;;;;;;;0.44;81.10;99331.78;5032265;28;20241;-77
2023/01/19 04:16:05;;;;;;;8.47;4.70;;;;;;;0.50;80.71;99319.28;5033591;28;20246;-78
2023/01/19 04:18:33;;;;;;;4.90;3.80;;;;;;;0.53;80.78;99321.78;5029675;28;20224;-78
2023/01/19 04:21:00;;;;;;;6.90;4.17;;;;;;;0.56;80.61;99323.38;5030036;28;20248;-78
2023/01/19 04:23:28;;;;;;;6.70;4.60;;;;;;;0.56;80.24;99311.16;5033666;28;20230;-78
2023/01/19 04:25:58;;;;;;;7.70;4.37;;;;;;;0.58;80.04;99311.06;5031103;28;20592;-78
2023/01/19 04:28:27;;;;;;;4.97;3.87;;;;;;;0.55;80.43;99308.59;5030555;28;20202;-77
2023/01/19 04:30:56;;;;;;;5.07;3.40;;;;;;;0.54;79.87;99310.34;5036164;28;20608;-78
2023/01/19 04:33:24;;;;;;;5.83;4.30;;;;;;;0.55;79.69;99314.69;5031002;28;20230;-78
2023/01/19 04:35:55;;;;;;;7.23;4.07;;;;;;;0.55;79.42;99314.69;5023806;28;20241;-78
2023/01/19 04:38:24;;;;;;;8.97;4.23;;;;;;;0.57;79.76;99319.84;5034481;28;20210;-77
2023/01/19 04:40:53;;;;;;;5.47;4.10;;;;;;;0.56;79.65;99311.16;5032203;28;20210;-78
2023/01/19 04:43:21;;;;;;;6.57;4.07;;;;;;;0.58;79.85;99317.16;5031470;28;20230;-77
2023/01/19 04:45:52;;;;;;;6.47;4.70;;;;;;;0.61;79.46;99308.31;5031529;28;20211;-78
2023/01/19 04:48:22;;;;;;;6.73;3.40;;;;;;;0.64;79.83;99306.44;5031877;28;20334;-78
2023/01/19 04:50:52;;;;;;;8.37;4.70;;;;;;;0.66;79.13;99311.59;5032036;28;20206;-77
2023/01/19 04:53:23;;;;;;;6.50;4.13;;;;;;;0.61;79.44;99316.19;5036510;28;20217;-77
2023/01/19 04:55:56;;;;;;;5.77;4.30;;;;;;;0.62;79.11;99312.66;5032046;28;20234;-77
2023/01/19 04:58:26;;;;;;;5.93;4.00;;;;;;;0.63;79.35;99307.34;5025003;28;20206;-78
2023/01/19 05:00:58;;;;;;;7.17;4.70;;;;;;;0.63;79.54;99309.97;5026848;28;20210;-77
2023/01/19 05:03:27;;;;;;;4.67;3.93;;;;;;;0.65;79.68;99302.91;5033462;28;20261;-78
2023/01/19 05:05:57;;;;;;;4.63;4.03;;;;;;;0.65;79.50;99307.28;5026114;28;20203;-77
2023/01/19 05:08:25;;;;;;;6.87;4.40;;;;;;;0.67;79.15;99295.81;5032070;28;20221;-78
2023/01/19 05:10:56;;;;;;;6.73;4.87;;;;;;;0.67;79.41;99302.81;5028940;28;20213;-78
2023/01/19 05:13:24;;;;;;;6.70;3.87;;;;;;;0.65;79.56;99296.81;5030708;28;20234;-78
2023/01/19 05:15:56;;;;;;;4.97;3.30;;;;;;;0.73;79.41;99297.28;5032475;28;20222;-77
2023/01/19 05:18:24;;;;;;;6.10;3.87;;;;;;;0.79;78.96;99306.66;5026286;28;20199;-77
2023/01/19 05:20:54;;;;;;;3.20;2.63;;;;;;;0.82;79.17;99309.16;5028048;28;20400;-78
2023/01/19 05:23:22;;;;;;;7.87;4.23;;;;;;;0.82;78.93;99309.16;5023688;28;20872;-77
2023/01/19 05:25:55;;;;;;;5.97;3.93;;;;;;;0.83;79.14;99323.94;5028314;28;20622;-77
2023/01/19 05:28:25;;;;;;;6.50;3.37;;;;;;;0.86;78.77;99321.19;5026948;28;20210;-77
2023/01/19 05:30:55;;;;;;;6.00;4.23;;;;;;;0.88;78.62;99311.50;5024278;28;20206;-78
2023/01/19 05:33:23;;;;;;;5.63;3.77;;;;;;;0.90;78.70;99312.25;5028022;28;20317;-78
2023/01/19 05:35:55;;;;;;;5.83;4.17;;;;;;;0.95;78.21;99302.41;5026620;28;20276;-77
2023/01/19 05:38:24;;;;;;;9.37;4.10;;;;;;;0.96;78.10;99312.00;5029646;28;20276;-78
2023/01/19 05:41:00;;;;;;;5.50;3.67;;;;;;;0.90;78.60;99301.78;5027285;28;20210;-77
2023/01/19 05:43:30;;;;;;;8.53;3.33;;;;;;;0.95;78.41;99295.41;5025320;28;20517;-78
2023/01/19 05:46:03;;;;;;;9.73;3.50;;;;;;;0.94;78.40;99316.44;5029047;28;20206;-77
2023/01/19 05:48:31;;;;;;;5.63;3.70;;;;;;;1.00;78.32;99303.91;5029126;28;20218;-77
2023/01/19 05:51:05;;;;;;;4.40;3.80;;;;;;;0.99;78.16;99314.47;5027915;28;20210;-77
2023/01/19 05:53:37;;;;;;;5.43;3.67;;;;;;;1.00;78.36;99316.19;5031508;28;20268;-78
2023/01/19 05:56:09;;;;;;;6.13;4.20;;;;;;;0.96;78.28;99317.22;5027633;28;20231;-77
2023/01/19 05:58:38;;;;;;;5.70;3.30;;;;;;;0.99;78.09;99330.22;5019956;28;20295;-78
2023/01/19 06:01:07;;;;;;;5.63;3.67;;;;;;;1.01;78.37;99315.25;5028620;28;20214;-78
2023/01/19 06:03:38;;;;;;;5.13;3.53;;;;;;;1.04;78.01;99320.38;5028149;28;20230;-78
2023/01/19 06:06:11;;;;;;;5.83;4.13;;;;;;;1.00;77.92;99327.53;5030550;28;20215;-79
2023/01/19 06:08:39;;;;;;;5.13;3.70;;;;;;;1.05;78.00;99322.06;5026674;28;20202;-80
2023/01/19 06:11:12;;;;;;;4.77;4.00;;;;;;;1.05;77.42;99332.56;5032716;28;20671;-78
2023/01/19 06:13:43;;;;;;;5.00;3.63;;;;;;;1.09;77.81;99330.63;5032026;28;20230;-78
2023/01/19 06:16:13;;;;;;;4.70;3.20;;;;;;;1.12;77.62;99323.47;5028984;28;20222;-79
2023/01/19 06:18:40;;;;;;;5.13;4.07;;;;;;;1.11;77.76;99324.38;5029511;28;20658;-79
2023/01/19 06:21:11;;;;;;;6.83;3.90;;;;;;;1.12;77.78;99322.63;5030020;28;20289;-79
2023/01/19 06:23:40;;;;;;;6.30;4.27;;;;;;;1.14;77.34;99329.50;5024453;28;20325;-78
2023/01/19 06:26:08;;;;;;;6.63;4.50;;;;;;;1.14;77.60;99333.88;5030923;28;20233;-79
2023/01/19 06:28:55;;;;;;;6.83;5.33;;;;;;;1.16;77.34;99322.41;5031647;28;20556;-78
2023/01/19 06:32:07;;;;;;;5.37;3.87;;;;;;;1.20;77.15;99333.63;5024126;28;20207;-79
2023/01/19 06:34:35;;;;;;;5.30;3.50;;;;;;;1.16;77.29;99342.53;5028679;28;20686;-79
2023/01/19 06:37:04;;;;;;;4.87;3.93;;;;;;;1.17;76.80;99341.63;5028941;28;20234;-79
2023/01/19 06:39:43;;;;;;;5.50;4.00;;;;;;;1.18;76.91;99336.31;5021177;28;20673;-79
2023/01/19 06:42:10;;;;;;;5.03;4.03;;;;;;;1.19;76.78;99347.66;5031382;28;20243;-79
2023/01/19 06:44:58;;;;;;;6.97;4.20;;;;;;;1.22;76.53;99353.63;5028989;28;20233;-78
2023/01/19 06:47:25;;;;;;;6.13;4.30;;;;;;;1.17;76.83;99352.13;5027245;28;20206;-78
2023/01/19 06:49:52;;;;;;;5.13;3.73;;;;;;;1.18;77.20;99351.19;5031007;28;20241;-78
2023/01/19 06:52:21;;;;;;;7.63;5.07;;;;;;;1.22;76.62;99360.63;5031847;28;20283;-78
2023/01/19 06:54:49;;;;;;;7.70;4.97;;;;;;;1.23;76.66;99346.59;5030826;28;20305;-77
2023/01/19 06:57:16;;;;;;;6.00;4.67;;;;;;;1.21;76.23;99357.16;5032068;28;20572;-78
2023/01/19 06:59:44;;;;;;;7.57;5.40;;;;;;;1.21;76.26;99357.16;5033255;28;20214;-80
2023/01/19 07:02:18;;;;;;;6.83;4.40;;;;;;;1.20;76.30;99354.59;5035625;28;20225;-79
2023/01/19 07:04:49;;;;;;;7.13;4.97;;;;;;;1.16;76.35;99367.00;5032944;28;20202;-79
2023/01/19 07:07:19;;;;;;;6.07;5.20;;;;;;;1.13;77.03;99363.66;5038601;28;20207;-79
2023/01/19 07:09:50;;;;;;;6.93;4.83;;;;;;;1.13;77.02;99361.88;5030939;28;20207;-80
2023/01/19 07:12:21;;;;;;;6.37;4.37;;;;;;;1.13;76.59;99361.88;5027949;28;20226;-80
2023/01/19 07:14:51;;;;;;;7.13;4.43;;;;;;;1.14;76.55;99358.34;5029525;28;20213;-80
2023/01/19 07:17:22;;;;;;;7.97;4.40;;;;;;;1.12;76.38;99368.03;5031779;28;20230;-80
2023/01/19 07:19:50;;;;;;;6.67;4.80;;;;;;;1.12;76.82;99375.91;5029967;28;20206;-80
2023/01/19 07:22:18;;;;;;;6.27;4.70;;;;;;;1.11;76.91;99368.13;5033083;28;20871;-80
2023/01/19 07:24:46;;;;;;;9.50;5.90;;;;;;;1.09;76.92;99370.81;5032602;28;20206;-80
2023/01/19 07:27:19;;;;;;;9.13;4.53;;;;;;;1.11;76.98;99365.50;5031821;28;20209;-80
2023/01/19 07:29:47;;;;;;;7.17;4.70;;;;;;;1.12;76.39;99375.06;5029429;28;20928;-80
2023/01/19 07:32:14;;;;;;;5.77;4.20;;;;;;;1.11;77.01;99382.06;5032328;28;20617;-80
2023/01/19 07:34:42;;;;;;;9.60;4.57;;;;;;;1.13;76.98;99375.00;5032545;28;20202;-80
2023/01/19 07:37:10;;;;;;;8.43;5.10;;;;;;;1.11;76.42;99374.22;5030674;28;20899;-80
2023/01/19 07:39:38;;;;;;;10.33;5.03;;;;;;;1.11;76.74;99384.69;5032735;28;20266;-80
2023/01/19 07:42:06;;;;;;;9.10;5.50;;;;;;;1.09;76.60;99376.03;5031986;28;20206;-80
2023/01/19 07:44:38;;;;;;;7.27;5.17;;;;;;;1.14;76.55;99384.56;5031009;28;20268;-80
2023/01/19 07:47:07;;;;;;;6.63;4.23;;;;;;;1.11;76.37;99384.69;5034590;28;20210;-80
2023/01/19 07:49:35;;;;;;;7.77;5.07;;;;;;;1.11;76.35;99387.31;5030320;28;20280;-80
2023/01/19 07:52:02;;;;;;;6.50;4.60;;;;;;;1.09;76.69;99396.16;5033215;28;20749;-80
2023/01/19 07:54:30;;;;;;;6.03;4.73;;;;;;;1.10;76.48;99388.25;5034924;28;20205;-80
2023/01/19 07:56:59;;;;;;;7.53;5.10;;;;;;;1.09;76.67;99396.16;5033908;28;20508;-80
2023/01/19 07:59:26;;;;;;;8.50;5.60;;;;;;;1.08;76.36;99399.72;5030499;28;20206;-80
2023/01/19 08:01:56;;;;;;;7.23;5.27;;;;;;;1.05;76.66;99405.97;5036174;28;20202;-80
2023/01/19 08:04:24;;;;;;;8.33;5.27;;;;;;;1.04;76.38;99407.75;5033616;28;20588;-80
2023/01/19 08:06:51;;;;;;;8.00;6.03;;;;;;;1.04;76.72;99402.50;5031143;28;20241;-80
2023/01/19 08:09:22;;;;;;;7.90;5.43;;;;;;;0.98;76.79;99397.50;5030454;28;20198;-80
2023/01/19 08:11:50;;;;;;;7.30;5.43;;;;;;;1.02;76.45;99395.63;5032667;28;20270;-82
2023/01/19 08:14:17;;;;;;;8.00;4.70;;;;;;;0.96;76.74;99391.47;5030874;28;20302;-80
2023/01/19 08:16:44;;;;;;;7.10;5.30;;;;;;;0.99;76.44;99386.09;5032037;28;20238;-81
2023/01/19 08:19:13;;;;;;;8.70;4.90;;;;;;;0.96;76.45;99391.47;5034327;28;20230;-81
2023/01/19 08:21:40;;;;;;;7.93;6.00;;;;;;;0.98;76.32;99378.31;5036348;28;20198;-80
2023/01/19 08:24:17;;;;;;;10.13;5.70;;;;;;;0.97;76.47;99394.97;5037079;28;20230;-81
2023/01/19 08:26:44;;;;;;;6.50;4.87;;;;;;;0.96;76.44;99388.00;5040465;28;20205;-81
2023/01/19 08:29:11;;;;;;;7.60;4.27;;;;;;;1.00;76.52;99400.06;5034622;28;20289;-81
2023/01/19 08:31:38;;;;;;;7.43;4.87;;;;;;;1.00;76.69;99405.31;5038148;28;20252;-81
2023/01/19 08:34:06;;;;;;;7.77;5.13;;;;;;;1.04;76.99;99409.50;5035684;28;20226;-80
2023/01/19 08:36:35;;;;;;;3.83;2.83;;;;;;;1.10;77.19;99400.50;5031638;28;20673;-81
2023/01/19 08:39:03;;;;;;;8.17;5.67;;;;;;;1.15;76.95;99406.41;5038124;28;20617;-81
2023/01/19 08:41:31;;;;;;;6.80;4.90;;;;;;;1.17;76.97;99397.53;5037385;28;20955;-81
2023/01/19 08:43:59;;;;;;;7.63;5.07;;;;;;;1.22;77.49;99397.34;5037922;28;20230;-80
2023/01/19 08:46:29;;;;;;;6.10;4.63;;;;;;;1.28;76.77;99403.16;5039790;28;20222;-80
2023/01/19 08:48:57;;;;;;;6.00;5.00;;;;;;;1.35;76.96;99415.06;5033389;28;20283;-80
2023/01/19 08:51:27;;;;;;;6.07;4.57;;;;;;;1.39;76.98;99414.03;5034621;28;20609;-81
2023/01/19 08:53:58;;;;;;;6.33;4.30;;;;;;;1.43;76.18;99424.38;5034643;28;20225;-80
2023/01/19 08:56:26;;;;;;;6.50;4.80;;;;;;;1.43;76.23;99422.59;5038552;28;20226;-80
2023/01/19 08:58:54;;;;;;;7.50;4.90;;;;;;;1.42;75.93;99431.41;5030591;28;20256;-80
2023/01/19 09:01:22;;;;;;;7.27;4.63;;;;;;;1.47;76.17;99433.78;5031171;28;20213;-80
2023/01/19 09:03:50;;;;;;;7.20;4.93;;;;;;;1.51;76.38;99432.72;5032848;28;20226;-80
2023/01/19 09:06:20;;;;;;;6.20;4.43;;;;;;;1.51;76.50;99437.97;5034150;28;20222;-80
2023/01/19 09:08:50;;;;;;;5.97;5.00;;;;;;;1.54;75.71;99437.84;5033531;28;20285;-81
2023/01/19 09:11:19;;;;;;;6.43;5.10;;;;;;;1.54;76.31;99437.84;5040082;28;20567;-80
2023/01/19 09:13:47;;;;;;;8.50;5.93;;;;;;;1.54;76.08;99437.84;5033853;28;20222;-80
2023/01/19 09:16:15;;;;;;;6.73;5.17;;;;;;;1.55;75.47;99442.19;5035415;28;20222;-80
2023/01/19 09:18:44;;;;;;;8.53;6.07;;;;;;;1.53;75.74;99444.00;5032875;28;20297;-79
2023/01/19 09:21:13;;;;;;;7.23;4.23;;;;;;;1.58;76.06;99435.03;5036376;28;20272;-79
2023/01/19 09:23:42;;;;;;;6.23;4.70;;;;;;;1.63;75.75;99435.63;5034908;28;20237;-79
2023/01/19 09:26:11;;;;;;;5.30;4.00;;;;;;;1.66;75.32;99437.28;5034665;28;20210;-79
2023/01/19 09:28:40;;;;;;;9.07;6.77;;;;;;;1.65;75.45;99427.69;5034888;28;20313;-80
2023/01/19 09:31:09;;;;;;;5.10;4.43;;;;;;;1.71;75.53;99423.03;5032972;28;20682;-80
2023/01/19 09:33:37;;;;;;;5.90;4.17;;;;;;;1.73;75.24;99430.81;5035889;28;20277;-79
2023/01/19 09:36:09;;;;;;;5.80;4.40;;;;;;;1.74;75.95;99443.88;5033434;28;20211;-78
2023/01/19 09:38:47;;;;;;;8.20;5.23;;;;;;;1.73;75.89;99438.69;5037444;28;20727;-78
2023/01/19 09:41:21;;;;;;;9.80;5.70;;;;;;;1.73;75.44;99447.44;5034383;28;20284;-78
2023/01/19 09:43:57;;;;;;;7.57;5.33;;;;;;;1.74;75.96;99462.25;5033640;28;20463;-78
2023/01/19 09:46:33;;;;;;;6.57;4.17;;;;;;;1.72;75.96;99453.59;5033201;28;20223;-78
2023/01/19 09:49:14;;;;;;;7.00;5.10;;;;;;;1.76;76.10;99454.31;5033633;28;20214;-78
2023/01/19 09:51:45;;;;;;;8.40;4.53;;;;;;;1.79;76.54;99462.06;5032130;28;20202;-78
2023/01/19 09:54:21;;;;;;;6.80;4.27;;;;;;;1.82;76.10;99461.88;5033232;28;20242;-78
2023/01/19 09:56:50;;;;;;;7.87;5.00;;;;;;;1.85;76.80;99464.38;5034052;28;20226;-79
2023/01/19 09:59:23;;;;;;;9.83;4.80;;;;;;;1.88;76.66;99474.72;5034553;28;20198;-78
2023/01/19 10:02:17;;;;;;;6.47;4.53;;;;;;;1.92;77.37;99478.06;5034512;28;20237;-78
2023/01/19 10:04:58;;;;;;;7.33;4.70;;;;;;;1.97;77.33;99458.53;4990441;28;20211;-78
2023/01/19 10:07:38;;;;;;;4.93;4.43;;;;;;;1.91;76.95;99476.38;5029816;28;20667;-79
2023/01/19 10:10:16;;;;;;;4.97;4.40;;;;;;;1.88;77.54;99482.59;5031888;28;20236;-78
2023/01/19 10:13:03;;;;;;;6.07;4.33;;;;;;;1.86;77.83;99468.69;5033540;28;20250;-78
2023/01/19 10:15:42;;;;;;;5.50;4.57;;;;;;;1.91;77.73;99473.75;5031859;28;20210;-79
2023/01/19 10:18:17;;;;;;;4.93;4.23;;;;;;;1.94;77.83;99484.09;5030432;28;20767;-79
2023/01/19 10:20:49;;;;;;;6.10;3.80;;;;;;;1.93;77.72;99477.16;5029817;28;20217;-79
2023/01/19 10:23:37;;;;;;;5.43;4.40;;;;;;;1.94;78.32;99481.47;5031290;28;20257;-78
2023/01/19 10:26:15;;;;;;;5.37;4.10;;;;;;;1.97;78.30;99482.16;5031929;28;20706;-79
2023/01/19 10:28:46;;;;;;;4.50;3.70;;;;;;;1.96;78.47;99482.25;5034459;28;20198;-79
2023/01/19 10:31:23;;;;;;;5.83;3.93;;;;;;;1.95;78.29;99497.16;5030539;28;20202;-79
2023/01/19 10:33:55;;;;;;;5.93;4.47;;;;;;;1.98;78.47;99485.63;5034610;28;20293;-77
2023/01/19 10:36:29;;;;;;;4.53;3.60;;;;;;;1.94;78.35;99479.72;5035371;28;20190;-76
2023/01/19 10:39:01;;;;;;;4.67;3.37;;;;;;;1.98;79.44;99485.63;5034750;28;20250;-76
2023/01/19 10:41:39;;;;;;;4.90;3.60;;;;;;;1.97;79.14;99482.16;5034758;28;20212;-77
2023/01/19 10:44:08;;;;;;;5.20;4.40;;;;;;;1.99;79.03;99482.94;5035539;28;20262;-77
2023/01/19 10:46:43;;;;;;;3.63;3.03;;;;;;;2.04;78.99;99485.38;5035141;28;20210;-76
2023/01/19 10:49:26;;;;;;;4.53;3.67;;;;;;;2.00;78.91;99489.06;5034238;28;20300;-76
2023/01/19 10:51:55;;;;;;;3.87;3.40;;;;;;;2.05;79.60;99481.81;5034788;28;20214;-77
2023/01/19 10:54:24;;;;;;;3.77;3.40;;;;;;;2.03;79.95;99491.53;5034537;28;20214;-76
2023/01/19 10:56:54;;;;;;;4.77;4.27;;;;;;;2.00;80.43;99489.06;5034364;28;20206;-77
2023/01/19 10:59:34;;;;;;;4.13;2.93;;;;;;;1.98;80.67;99496.16;5035086;28;20554;-76
2023/01/19 11:02:18;;;;;;;4.23;2.83;;;;;;;1.96;81.54;99490.16;5033083;28;20191;-76
2023/01/19 11:04:51;;;;;;;3.37;3.07;;;;;;;2.01;81.62;99488.97;5033260;28;20206;-79
2023/01/19 11:07:24;;;;;;;3.53;3.03;;;;;;;1.99;81.40;99493.44;5035362;28;20233;-80
2023/01/19 11:10:20;;;;;;;3.93;3.33;;;;;;;1.98;82.13;99488.28;5038215;28;20213;-79
2023/01/19 11:12:59;;;;;;;6.47;3.57;;;;;;;1.96;82.56;99491.00;5028179;28;20218;-79
2023/01/19 11:15:34;;;;;;;5.20;3.60;;;;;;;1.99;82.91;99477.69;5032508;28;20237;-79
2023/01/19 11:18:06;;;;;;;3.33;2.80;;;;;;;2.01;82.73;99496.00;5030683;28;20260;-79
2023/01/19 11:20:48;;;;;;;4.10;3.50;;;;;;;2.04;83.27;99488.84;5034202;28;20226;-79
2023/01/19 11:23:33;;;;;;;6.00;4.17;;;;;;;2.01;83.18;99510.00;5032186;28;20237;-79
2023/01/19 11:26:07;;;;;;;9.87;7.17;;;;;;;2.00;83.34;99497.78;5029213;28;20194;-79
2023/01/19 11:28:41;;;;;;;4.53;4.03;;;;;;;2.01;83.18;99494.22;5031439;28;20285;-80
2023/01/19 11:31:20;;;;;;;5.37;4.70;;;;;;;2.06;83.21;99502.75;5027675;28;20206;-79
2023/01/19 11:33:52;;;;;;;5.27;4.03;;;;;;;2.05;83.58;99503.69;5036641;28;20221;-79
2023/01/19 11:36:30;;;;;;;3.43;3.13;;;;;;;2.07;83.71;99498.34;5033298;28;20214;-78
2023/01/19 11:39:02;;;;;;;8.00;5.67;;;;;;;2.06;83.53;99500.13;5030169;28;20717;-79
2023/01/19 11:41:35;;;;;;;4.00;3.30;;;;;;;2.08;84.02;99497.44;5027370;28;20198;-80
2023/01/19 11:44:15;;;;;;;7.70;6.80;;;;;;;2.09;84.41;99496.50;5020050;28;20234;-79
2023/01/19 11:46:51;;;;;;;3.97;3.63;;;;;;;2.11;84.79;99505.19;5029092;28;20209;-79
2023/01/19 11:49:32;;;;;;;4.80;3.50;;;;;;;2.14;84.34;99502.41;5033150;28;20271;-79
2023/01/19 11:52:04;;;;;;;3.80;3.00;;;;;;;2.14;84.78;99505.03;5029162;28;20666;-78
2023/01/19 11:54:36;;;;;;;3.17;2.83;;;;;;;2.13;84.45;99497.22;5029933;28;20222;-80
2023/01/19 11:57:12;;;;;;;4.03;2.93;;;;;;;2.14;85.15;99501.56;5028881;28;20206;-79
2023/01/19 11:59:41;;;;;;;3.20;2.43;;;;;;;2.16;84.80;99510.19;5036180;28;20288;-80
2023/01/19 12:02:23;;;;;;;2.90;2.40;;;;;;;2.12;85.53;99506.03;5036631;28;20224;-79
2023/01/19 12:04:59;;;;;;;2.33;2.13;;;;;;;2.11;85.41;99505.19;5032084;28;20197;-79
2023/01/19 12:07:34;;;;;;;2.97;2.67;;;;;;;2.14;85.38;99515.53;5031403;28;20207;-79
2023/01/19 12:10:16;;;;;;;3.20;2.87;;;;;;;2.15;85.46;99511.16;5033700;28;20244;-79
2023/01/19 12:12:49;;;;;;;2.80;2.40;;;;;;;2.17;85.71;99507.50;5027446;28;20234;-80